sensor_id;sensor_type;location;lat;lon;timestamp;P1;durP1;ratioP1;P2;durP2;ratioP2
6858;SDS011;3468;42.824;23.240;2023-05-16T00:01:58;21.30;;;12.07;;
6858;SDS011;3468;42.824;23.240;2023-05-16T00:04:25;20.10;;;13.23;;
6858;SDS011;3468;42.824;23.240;2023-05-16T00:06:52;16.70;;;12.17;;
6858;SDS011;3468;42.824;23.240;2023-05-16T00:09:18;18.30;;;12.07;;
6858;SDS011;3468;42.824;23.240;2023-05-16T00:11:47;16.03;;;11.77;;
6858;SDS011;3468;42.824;23.240;2023-05-16T00:14:14;17.13;;;12.70;;
6858;SDS011;3468;42.824;23.240;2023-05-16T00:16:41;16.70;;;12.27;;
6858;SDS011;3468;42.824;23.240;2023-05-16T00:19:07;18.57;;;12.80;;
6858;SDS011;3468;42.824;23.240;2023-05-16T00:21:35;19.37;;;13.57;;
6858;SDS011;3468;42.824;23.240;2023-05-16T00:24:02;19.77;;;12.37;;
6858;SDS011;3468;42.824;23.240;2023-05-16T00:26:29;17.57;;;12.40;;
6858;SDS011;3468;42.824;23.240;2023-05-16T00:28:57;18.47;;;12.27;;
6858;SDS011;3468;42.824;23.240;2023-05-16T00:31:24;16.87;;;12.47;;
6858;SDS011;3468;42.824;23.240;2023-05-16T00:33:51;20.80;;;11.70;;
6858;SDS011;3468;42.824;23.240;2023-05-16T00:36:18;19.90;;;12.73;;
6858;SDS011;3468;42.824;23.240;2023-05-16T00:38:45;18.90;;;12.60;;
6858;SDS011;3468;42.824;23.240;2023-05-16T00:41:12;18.23;;;12.73;;
6858;SDS011;3468;42.824;23.240;2023-05-16T00:43:39;17.33;;;11.87;;
6858;SDS011;3468;42.824;23.240;2023-05-16T00:46:07;17.23;;;11.77;;
6858;SDS011;3468;42.824;23.240;2023-05-16T00:48:34;16.90;;;11.77;;
6858;SDS011;3468;42.824;23.240;2023-05-16T00:51:00;19.20;;;11.57;;
6858;SDS011;3468;42.824;23.240;2023-05-16T00:53:27;14.10;;;10.90;;
6858;SDS011;3468;42.824;23.240;2023-05-16T00:55:55;19.40;;;12.80;;
6858;SDS011;3468;42.824;23.240;2023-05-16T00:58:22;19.93;;;11.63;;
6858;SDS011;3468;42.824;23.240;2023-05-16T01:00:50;16.93;;;11.40;;
6858;SDS011;3468;42.824;23.240;2023-05-16T01:03:19;20.20;;;12.17;;
6858;SDS011;3468;42.824;23.240;2023-05-16T01:05:46;15.67;;;11.20;;
6858;SDS011;3468;42.824;23.240;2023-05-16T01:08:13;18.77;;;11.10;;
6858;SDS011;3468;42.824;23.240;2023-05-16T01:10:43;15.93;;;11.57;;
6858;SDS011;3468;42.824;23.240;2023-05-16T01:13:17;17.30;;;11.23;;
6858;SDS011;3468;42.824;23.240;2023-05-16T01:15:55;15.43;;;10.90;;
6858;SDS011;3468;42.824;23.240;2023-05-16T01:18:30;15.30;;;11.70;;
6858;SDS011;3468;42.824;23.240;2023-05-16T01:21:03;13.63;;;11.07;;
6858;SDS011;3468;42.824;23.240;2023-05-16T01:23:39;13.70;;;10.53;;
6858;SDS011;3468;42.824;23.240;2023-05-16T01:26:18;18.97;;;10.90;;
6858;SDS011;3468;42.824;23.240;2023-05-16T01:28:46;14.20;;;10.50;;
6858;SDS011;3468;42.824;23.240;2023-05-16T01:31:14;18.30;;;11.17;;
6858;SDS011;3468;42.824;23.240;2023-05-16T01:33:41;18.67;;;10.50;;
6858;SDS011;3468;42.824;23.240;2023-05-16T01:36:10;17.37;;;10.80;;
6858;SDS011;3468;42.824;23.240;2023-05-16T01:38:44;16.27;;;10.47;;
6858;SDS011;3468;42.824;23.240;2023-05-16T01:41:20;13.07;;;10.13;;
6858;SDS011;3468;42.824;23.240;2023-05-16T01:43:50;18.93;;;10.13;;
6858;SDS011;3468;42.824;23.240;2023-05-16T01:46:23;16.17;;;10.53;;
6858;SDS011;3468;42.824;23.240;2023-05-16T01:48:57;15.17;;;10.13;;
6858;SDS011;3468;42.824;23.240;2023-05-16T01:51:30;14.33;;;9.47;;
6858;SDS011;3468;42.824;23.240;2023-05-16T01:53:59;19.43;;;10.47;;
6858;SDS011;3468;42.824;23.240;2023-05-16T01:56:33;14.53;;;10.37;;
6858;SDS011;3468;42.824;23.240;2023-05-16T01:59:02;16.57;;;10.40;;
6858;SDS011;3468;42.824;23.240;2023-05-16T02:01:30;16.03;;;10.23;;
6858;SDS011;3468;42.824;23.240;2023-05-16T02:03:57;14.90;;;10.53;;
6858;SDS011;3468;42.824;23.240;2023-05-16T02:06:24;17.40;;;10.47;;
6858;SDS011;3468;42.824;23.240;2023-05-16T02:08:51;15.73;;;10.57;;
6858;SDS011;3468;42.824;23.240;2023-05-16T02:11:18;13.87;;;10.93;;
6858;SDS011;3468;42.824;23.240;2023-05-16T02:13:46;16.80;;;10.37;;
6858;SDS011;3468;42.824;23.240;2023-05-16T02:16:13;16.23;;;10.30;;
6858;SDS011;3468;42.824;23.240;2023-05-16T02:18:40;15.47;;;10.70;;
6858;SDS011;3468;42.824;23.240;2023-05-16T02:21:06;14.33;;;10.07;;
6858;SDS011;3468;42.824;23.240;2023-05-16T02:23:33;16.50;;;10.43;;
6858;SDS011;3468;42.824;23.240;2023-05-16T02:26:00;13.80;;;10.53;;
6858;SDS011;3468;42.824;23.240;2023-05-16T02:28:26;16.47;;;10.53;;
6858;SDS011;3468;42.824;23.240;2023-05-16T02:30:58;16.57;;;11.50;;
6858;SDS011;3468;42.824;23.240;2023-05-16T02:33:25;18.07;;;11.63;;
6858;SDS011;3468;42.824;23.240;2023-05-16T02:35:52;18.83;;;10.83;;
6858;SDS011;3468;42.824;23.240;2023-05-16T02:38:20;14.87;;;11.03;;
6858;SDS011;3468;42.824;23.240;2023-05-16T02:40:46;14.33;;;10.97;;
6858;SDS011;3468;42.824;23.240;2023-05-16T02:43:13;16.60;;;10.37;;
6858;SDS011;3468;42.824;23.240;2023-05-16T02:45:40;15.40;;;10.90;;
6858;SDS011;3468;42.824;23.240;2023-05-16T02:48:08;14.53;;;10.30;;
6858;SDS011;3468;42.824;23.240;2023-05-16T02:50:36;15.73;;;10.60;;
6858;SDS011;3468;42.824;23.240;2023-05-16T02:53:04;17.80;;;10.03;;
6858;SDS011;3468;42.824;23.240;2023-05-16T02:55:31;15.77;;;10.37;;
6858;SDS011;3468;42.824;23.240;2023-05-16T02:57:58;15.70;;;11.30;;
6858;SDS011;3468;42.824;23.240;2023-05-16T03:00:24;16.73;;;11.63;;
6858;SDS011;3468;42.824;23.240;2023-05-16T03:02:51;14.40;;;11.27;;
6858;SDS011;3468;42.824;23.240;2023-05-16T03:05:19;17.87;;;10.97;;
6858;SDS011;3468;42.824;23.240;2023-05-16T03:07:46;19.00;;;11.63;;
6858;SDS011;3468;42.824;23.240;2023-05-16T03:10:13;17.20;;;11.60;;
6858;SDS011;3468;42.824;23.240;2023-05-16T03:12:40;15.73;;;11.00;;
6858;SDS011;3468;42.824;23.240;2023-05-16T03:15:07;18.53;;;11.60;;
6858;SDS011;3468;42.824;23.240;2023-05-16T03:17:35;16.53;;;11.73;;
6858;SDS011;3468;42.824;23.240;2023-05-16T03:20:01;20.83;;;12.83;;
6858;SDS011;3468;42.824;23.240;2023-05-16T03:22:30;19.90;;;11.50;;
6858;SDS011;3468;42.824;23.240;2023-05-16T03:24:57;17.97;;;12.23;;
6858;SDS011;3468;42.824;23.240;2023-05-16T03:27:24;19.70;;;12.30;;
6858;SDS011;3468;42.824;23.240;2023-05-16T03:29:52;19.13;;;11.97;;
6858;SDS011;3468;42.824;23.240;2023-05-16T03:32:18;19.40;;;11.67;;
6858;SDS011;3468;42.824;23.240;2023-05-16T03:34:45;18.00;;;12.90;;
6858;SDS011;3468;42.824;23.240;2023-05-16T03:37:12;16.17;;;11.93;;
6858;SDS011;3468;42.824;23.240;2023-05-16T03:39:41;19.33;;;12.70;;
6858;SDS011;3468;42.824;23.240;2023-05-16T03:42:08;17.33;;;12.30;;
6858;SDS011;3468;42.824;23.240;2023-05-16T03:44:35;17.53;;;11.57;;
6858;SDS011;3468;42.824;23.240;2023-05-16T03:47:02;17.17;;;12.50;;
6858;SDS011;3468;42.824;23.240;2023-05-16T03:49:29;19.17;;;10.70;;
6858;SDS011;3468;42.824;23.240;2023-05-16T03:51:55;15.27;;;11.17;;
6858;SDS011;3468;42.824;23.240;2023-05-16T03:54:22;17.00;;;12.07;;
6858;SDS011;3468;42.824;23.240;2023-05-16T03:56:50;18.53;;;11.40;;
6858;SDS011;3468;42.824;23.240;2023-05-16T03:59:17;20.87;;;11.50;;
6858;SDS011;3468;42.824;23.240;2023-05-16T04:01:44;15.37;;;11.77;;
6858;SDS011;3468;42.824;23.240;2023-05-16T04:04:10;19.93;;;13.10;;
6858;SDS011;3468;42.824;23.240;2023-05-16T04:06:38;19.03;;;12.73;;
6858;SDS011;3468;42.824;23.240;2023-05-16T04:09:04;16.43;;;12.03;;
6858;SDS011;3468;42.824;23.240;2023-05-16T04:11:31;16.47;;;12.23;;
6858;SDS011;3468;42.824;23.240;2023-05-16T04:14:00;20.17;;;12.37;;
6858;SDS011;3468;42.824;23.240;2023-05-16T04:16:26;17.07;;;12.73;;
6858;SDS011;3468;42.824;23.240;2023-05-16T04:18:53;18.07;;;12.00;;
6858;SDS011;3468;42.824;23.240;2023-05-16T04:21:20;16.93;;;11.83;;
6858;SDS011;3468;42.824;23.240;2023-05-16T04:23:47;16.80;;;11.83;;
6858;SDS011;3468;42.824;23.240;2023-05-16T04:26:14;22.63;;;12.63;;
6858;SDS011;3468;42.824;23.240;2023-05-16T04:28:41;21.03;;;11.97;;
6858;SDS011;3468;42.824;23.240;2023-05-16T04:31:09;19.23;;;11.93;;
6858;SDS011;3468;42.824;23.240;2023-05-16T04:33:38;18.50;;;11.70;;
6858;SDS011;3468;42.824;23.240;2023-05-16T04:36:05;15.07;;;11.77;;
6858;SDS011;3468;42.824;23.240;2023-05-16T04:38:32;17.30;;;12.83;;
6858;SDS011;3468;42.824;23.240;2023-05-16T04:40:59;19.37;;;12.10;;
6858;SDS011;3468;42.824;23.240;2023-05-16T04:43:25;18.20;;;12.47;;
6858;SDS011;3468;42.824;23.240;2023-05-16T04:45:52;20.20;;;13.30;;
6858;SDS011;3468;42.824;23.240;2023-05-16T04:48:21;19.80;;;12.40;;
6858;SDS011;3468;42.824;23.240;2023-05-16T04:50:47;18.80;;;12.47;;
6858;SDS011;3468;42.824;23.240;2023-05-16T04:53:14;18.80;;;12.60;;
6858;SDS011;3468;42.824;23.240;2023-05-16T04:55:41;18.07;;;11.90;;
6858;SDS011;3468;42.824;23.240;2023-05-16T04:58:08;22.97;;;12.63;;
6858;SDS011;3468;42.824;23.240;2023-05-16T05:00:34;18.00;;;12.43;;
6858;SDS011;3468;42.824;23.240;2023-05-16T05:03:02;18.10;;;12.67;;
6858;SDS011;3468;42.824;23.240;2023-05-16T05:05:30;17.13;;;12.87;;
6858;SDS011;3468;42.824;23.240;2023-05-16T05:07:58;16.40;;;12.83;;
6858;SDS011;3468;42.824;23.240;2023-05-16T05:10:24;16.27;;;12.70;;
6858;SDS011;3468;42.824;23.240;2023-05-16T05:12:52;20.27;;;13.13;;
6858;SDS011;3468;42.824;23.240;2023-05-16T05:15:19;22.80;;;13.10;;
6858;SDS011;3468;42.824;23.240;2023-05-16T05:17:45;20.60;;;12.97;;
6858;SDS011;3468;42.824;23.240;2023-05-16T05:20:12;16.83;;;13.03;;
6858;SDS011;3468;42.824;23.240;2023-05-16T05:22:40;17.97;;;12.57;;
6858;SDS011;3468;42.824;23.240;2023-05-16T05:25:07;19.70;;;11.90;;
6858;SDS011;3468;42.824;23.240;2023-05-16T05:27:35;18.07;;;12.93;;
6858;SDS011;3468;42.824;23.240;2023-05-16T05:30:01;17.83;;;13.13;;
6858;SDS011;3468;42.824;23.240;2023-05-16T05:32:29;20.70;;;14.03;;
6858;SDS011;3468;42.824;23.240;2023-05-16T05:34:56;21.33;;;12.93;;
6858;SDS011;3468;42.824;23.240;2023-05-16T05:37:22;17.77;;;12.77;;
6858;SDS011;3468;42.824;23.240;2023-05-16T05:39:50;19.93;;;13.33;;
6858;SDS011;3468;42.824;23.240;2023-05-16T05:42:17;20.67;;;12.63;;
6858;SDS011;3468;42.824;23.240;2023-05-16T05:44:44;23.23;;;12.93;;
6858;SDS011;3468;42.824;23.240;2023-05-16T05:47:10;16.17;;;11.97;;
6858;SDS011;3468;42.824;23.240;2023-05-16T05:49:38;18.17;;;12.13;;
6858;SDS011;3468;42.824;23.240;2023-05-16T05:52:05;18.40;;;13.00;;
6858;SDS011;3468;42.824;23.240;2023-05-16T05:54:32;17.87;;;12.73;;
6858;SDS011;3468;42.824;23.240;2023-05-16T05:57:00;20.43;;;12.87;;
6858;SDS011;3468;42.824;23.240;2023-05-16T05:59:26;18.87;;;12.80;;
6858;SDS011;3468;42.824;23.240;2023-05-16T06:01:53;19.83;;;12.13;;
6858;SDS011;3468;42.824;23.240;2023-05-16T06:04:20;20.03;;;12.97;;
6858;SDS011;3468;42.824;23.240;2023-05-16T06:06:47;18.30;;;13.40;;
6858;SDS011;3468;42.824;23.240;2023-05-16T06:09:14;22.47;;;12.80;;
6858;SDS011;3468;42.824;23.240;2023-05-16T06:11:40;19.50;;;13.27;;
6858;SDS011;3468;42.824;23.240;2023-05-16T06:14:11;18.80;;;13.90;;
6858;SDS011;3468;42.824;23.240;2023-05-16T06:16:40;17.67;;;12.43;;
6858;SDS011;3468;42.824;23.240;2023-05-16T06:19:07;20.40;;;12.90;;
6858;SDS011;3468;42.824;23.240;2023-05-16T06:21:33;23.37;;;14.20;;
6858;SDS011;3468;42.824;23.240;2023-05-16T06:24:00;23.03;;;14.43;;
6858;SDS011;3468;42.824;23.240;2023-05-16T06:26:30;18.63;;;13.23;;
6858;SDS011;3468;42.824;23.240;2023-05-16T06:28:58;18.80;;;12.00;;
6858;SDS011;3468;42.824;23.240;2023-05-16T06:31:27;16.97;;;11.97;;
6858;SDS011;3468;42.824;23.240;2023-05-16T06:33:53;16.33;;;12.37;;
6858;SDS011;3468;42.824;23.240;2023-05-16T06:36:20;18.97;;;13.33;;
6858;SDS011;3468;42.824;23.240;2023-05-16T06:38:47;18.47;;;12.37;;
6858;SDS011;3468;42.824;23.240;2023-05-16T06:41:15;18.80;;;12.93;;
6858;SDS011;3468;42.824;23.240;2023-05-16T06:43:41;20.73;;;13.17;;
6858;SDS011;3468;42.824;23.240;2023-05-16T06:46:08;17.17;;;13.67;;
6858;SDS011;3468;42.824;23.240;2023-05-16T06:48:36;19.47;;;13.30;;
6858;SDS011;3468;42.824;23.240;2023-05-16T06:51:03;18.97;;;12.93;;
6858;SDS011;3468;42.824;23.240;2023-05-16T06:53:30;16.80;;;12.30;;
6858;SDS011;3468;42.824;23.240;2023-05-16T06:55:56;18.53;;;12.10;;
6858;SDS011;3468;42.824;23.240;2023-05-16T06:58:23;16.87;;;12.73;;
6858;SDS011;3468;42.824;23.240;2023-05-16T07:00:50;19.40;;;12.30;;
6858;SDS011;3468;42.824;23.240;2023-05-16T07:03:17;16.70;;;12.23;;
6858;SDS011;3468;42.824;23.240;2023-05-16T07:05:45;20.07;;;12.40;;
6858;SDS011;3468;42.824;23.240;2023-05-16T07:08:12;19.67;;;13.10;;
6858;SDS011;3468;42.824;23.240;2023-05-16T07:10:39;22.40;;;13.67;;
6858;SDS011;3468;42.824;23.240;2023-05-16T07:13:05;21.90;;;12.43;;
6858;SDS011;3468;42.824;23.240;2023-05-16T07:15:32;18.87;;;12.23;;
6858;SDS011;3468;42.824;23.240;2023-05-16T07:17:59;17.60;;;11.97;;
6858;SDS011;3468;42.824;23.240;2023-05-16T07:20:26;17.93;;;12.73;;
6858;SDS011;3468;42.824;23.240;2023-05-16T07:22:54;15.37;;;11.67;;
6858;SDS011;3468;42.824;23.240;2023-05-16T07:25:21;23.23;;;12.07;;
6858;SDS011;3468;42.824;23.240;2023-05-16T07:27:48;18.07;;;12.67;;
6858;SDS011;3468;42.824;23.240;2023-05-16T07:30:15;16.70;;;11.93;;
6858;SDS011;3468;42.824;23.240;2023-05-16T07:32:41;16.93;;;12.00;;
6858;SDS011;3468;42.824;23.240;2023-05-16T07:35:08;20.07;;;12.23;;
6858;SDS011;3468;42.824;23.240;2023-05-16T07:37:37;19.00;;;11.37;;
6858;SDS011;3468;42.824;23.240;2023-05-16T07:40:07;15.83;;;11.17;;
6858;SDS011;3468;42.824;23.240;2023-05-16T07:42:35;19.63;;;12.50;;
6858;SDS011;3468;42.824;23.240;2023-05-16T07:45:02;18.67;;;11.77;;
6858;SDS011;3468;42.824;23.240;2023-05-16T07:47:29;18.57;;;12.07;;
6858;SDS011;3468;42.824;23.240;2023-05-16T07:49:56;16.07;;;11.53;;
6858;SDS011;3468;42.824;23.240;2023-05-16T07:52:22;16.63;;;10.93;;
6858;SDS011;3468;42.824;23.240;2023-05-16T07:54:49;18.53;;;10.90;;
6858;SDS011;3468;42.824;23.240;2023-05-16T07:57:17;18.23;;;11.73;;
6858;SDS011;3468;42.824;23.240;2023-05-16T07:59:44;21.00;;;10.57;;
6858;SDS011;3468;42.824;23.240;2023-05-16T08:02:11;17.20;;;10.33;;
6858;SDS011;3468;42.824;23.240;2023-05-16T08:04:38;18.20;;;10.83;;
6858;SDS011;3468;42.824;23.240;2023-05-16T08:07:04;15.30;;;10.03;;
6858;SDS011;3468;42.824;23.240;2023-05-16T08:09:33;15.97;;;11.20;;
6858;SDS011;3468;42.824;23.240;2023-05-16T08:12:00;14.50;;;10.60;;
6858;SDS011;3468;42.824;23.240;2023-05-16T08:14:29;18.40;;;10.07;;
6858;SDS011;3468;42.824;23.240;2023-05-16T08:16:57;17.20;;;10.33;;
6858;SDS011;3468;42.824;23.240;2023-05-16T08:19:24;12.47;;;9.50;;
6858;SDS011;3468;42.824;23.240;2023-05-16T08:21:51;14.23;;;9.97;;
6858;SDS011;3468;42.824;23.240;2023-05-16T08:24:18;16.30;;;10.50;;
6858;SDS011;3468;42.824;23.240;2023-05-16T08:26:44;15.77;;;9.70;;
6858;SDS011;3468;42.824;23.240;2023-05-16T08:29:11;15.27;;;9.80;;
6858;SDS011;3468;42.824;23.240;2023-05-16T08:31:40;15.60;;;9.50;;
6858;SDS011;3468;42.824;23.240;2023-05-16T08:34:06;17.60;;;10.23;;
6858;SDS011;3468;42.824;23.240;2023-05-16T08:36:34;15.37;;;9.30;;
6858;SDS011;3468;42.824;23.240;2023-05-16T08:39:01;14.43;;;9.47;;
6858;SDS011;3468;42.824;23.240;2023-05-16T08:41:28;11.85;;;8.25;;
6858;SDS011;3468;42.824;23.240;2023-05-16T08:43:55;14.02;;;9.25;;
6858;SDS011;3468;42.824;23.240;2023-05-16T08:46:22;11.25;;;8.48;;
6858;SDS011;3468;42.824;23.240;2023-05-16T08:48:52;19.75;;;8.23;;
6858;SDS011;3468;42.824;23.240;2023-05-16T08:51:20;16.15;;;9.48;;
6858;SDS011;3468;42.824;23.240;2023-05-16T08:53:49;16.13;;;9.25;;
6858;SDS011;3468;42.824;23.240;2023-05-16T08:56:19;12.90;;;8.65;;
6858;SDS011;3468;42.824;23.240;2023-05-16T08:58:48;17.73;;;9.75;;
6858;SDS011;3468;42.824;23.240;2023-05-16T09:01:15;13.48;;;9.48;;
6858;SDS011;3468;42.824;23.240;2023-05-16T09:03:44;14.63;;;8.82;;
6858;SDS011;3468;42.824;23.240;2023-05-16T09:06:13;13.68;;;9.95;;
6858;SDS011;3468;42.824;23.240;2023-05-16T09:08:40;12.65;;;9.07;;
6858;SDS011;3468;42.824;23.240;2023-05-16T09:11:07;12.10;;;8.80;;
6858;SDS011;3468;42.824;23.240;2023-05-16T09:13:34;11.75;;;8.88;;
6858;SDS011;3468;42.824;23.240;2023-05-16T09:16:09;13.52;;;8.95;;
6858;SDS011;3468;42.824;23.240;2023-05-16T09:18:37;17.48;;;10.20;;
6858;SDS011;3468;42.824;23.240;2023-05-16T09:21:04;11.38;;;7.80;;
6858;SDS011;3468;42.824;23.240;2023-05-16T09:23:34;13.45;;;7.95;;
6858;SDS011;3468;42.824;23.240;2023-05-16T09:26:00;13.23;;;8.02;;
6858;SDS011;3468;42.824;23.240;2023-05-16T09:28:27;11.70;;;8.20;;
6858;SDS011;3468;42.824;23.240;2023-05-16T09:30:55;12.50;;;7.60;;
6858;SDS011;3468;42.824;23.240;2023-05-16T09:33:23;12.15;;;7.22;;
6858;SDS011;3468;42.824;23.240;2023-05-16T09:35:55;14.18;;;8.15;;
6858;SDS011;3468;42.824;23.240;2023-05-16T09:38:23;14.55;;;8.68;;
6858;SDS011;3468;42.824;23.240;2023-05-16T09:40:52;15.02;;;8.18;;
6858;SDS011;3468;42.824;23.240;2023-05-16T09:43:21;15.13;;;8.63;;
6858;SDS011;3468;42.824;23.240;2023-05-16T09:45:51;16.25;;;8.40;;
6858;SDS011;3468;42.824;23.240;2023-05-16T09:48:19;10.68;;;8.10;;
6858;SDS011;3468;42.824;23.240;2023-05-16T09:50:48;12.77;;;8.75;;
6858;SDS011;3468;42.824;23.240;2023-05-16T09:53:16;16.88;;;8.18;;
6858;SDS011;3468;42.824;23.240;2023-05-16T09:55:44;10.45;;;8.25;;
6858;SDS011;3468;42.824;23.240;2023-05-16T09:58:12;12.23;;;9.10;;
6858;SDS011;3468;42.824;23.240;2023-05-16T10:00:42;12.63;;;8.02;;
6858;SDS011;3468;42.824;23.240;2023-05-16T10:03:09;16.65;;;8.07;;
6858;SDS011;3468;42.824;23.240;2023-05-16T10:05:36;13.73;;;7.75;;
6858;SDS011;3468;42.824;23.240;2023-05-16T10:08:05;13.93;;;9.07;;
6858;SDS011;3468;42.824;23.240;2023-05-16T10:10:33;15.35;;;8.35;;
6858;SDS011;3468;42.824;23.240;2023-05-16T10:13:02;12.30;;;8.27;;
6858;SDS011;3468;42.824;23.240;2023-05-16T10:15:33;11.23;;;7.65;;
6858;SDS011;3468;42.824;23.240;2023-05-16T10:18:02;10.15;;;7.50;;
6858;SDS011;3468;42.824;23.240;2023-05-16T10:20:35;13.40;;;8.07;;
6858;SDS011;3468;42.824;23.240;2023-05-16T10:23:03;12.63;;;8.02;;
6858;SDS011;3468;42.824;23.240;2023-05-16T10:25:32;14.23;;;7.85;;
6858;SDS011;3468;42.824;23.240;2023-05-16T10:28:01;12.52;;;7.47;;
6858;SDS011;3468;42.824;23.240;2023-05-16T10:30:29;12.43;;;7.78;;
6858;SDS011;3468;42.824;23.240;2023-05-16T10:33:01;17.27;;;7.65;;
6858;SDS011;3468;42.824;23.240;2023-05-16T10:35:29;15.10;;;7.45;;
6858;SDS011;3468;42.824;23.240;2023-05-16T10:37:56;13.60;;;7.20;;
6858;SDS011;3468;42.824;23.240;2023-05-16T10:40:25;13.00;;;7.40;;
6858;SDS011;3468;42.824;23.240;2023-05-16T10:42:54;11.30;;;7.40;;
6858;SDS011;3468;42.824;23.240;2023-05-16T10:45:21;13.95;;;7.75;;
6858;SDS011;3468;42.824;23.240;2023-05-16T10:47:52;13.73;;;7.97;;
6858;SDS011;3468;42.824;23.240;2023-05-16T10:50:37;16.70;;;7.63;;
6858;SDS011;3468;42.824;23.240;2023-05-16T10:53:15;11.10;;;7.63;;
6858;SDS011;3468;42.824;23.240;2023-05-16T10:55:49;14.32;;;7.63;;
6858;SDS011;3468;42.824;23.240;2023-05-16T10:58:38;10.65;;;6.45;;
6858;SDS011;3468;42.824;23.240;2023-05-16T11:01:15;9.00;;;6.43;;
6858;SDS011;3468;42.824;23.240;2023-05-16T11:06:34;9.95;;;7.00;;
6858;SDS011;3468;42.824;23.240;2023-05-16T11:09:17;10.40;;;6.78;;
6858;SDS011;3468;42.824;23.240;2023-05-16T11:11:46;13.63;;;7.00;;
6858;SDS011;3468;42.824;23.240;2023-05-16T11:14:19;13.40;;;7.20;;
6858;SDS011;3468;42.824;23.240;2023-05-16T11:16:47;12.02;;;7.40;;
6858;SDS011;3468;42.824;23.240;2023-05-16T11:19:28;14.82;;;7.57;;
6858;SDS011;3468;42.824;23.240;2023-05-16T11:22:07;12.63;;;7.53;;
6858;SDS011;3468;42.824;23.240;2023-05-16T11:24:44;11.68;;;7.53;;
6858;SDS011;3468;42.824;23.240;2023-05-16T11:27:19;9.93;;;7.18;;
6858;SDS011;3468;42.824;23.240;2023-05-16T11:29:47;12.38;;;7.50;;
6858;SDS011;3468;42.824;23.240;2023-05-16T11:32:14;14.18;;;6.88;;
6858;SDS011;3468;42.824;23.240;2023-05-16T11:34:45;15.30;;;7.45;;
6858;SDS011;3468;42.824;23.240;2023-05-16T11:37:13;9.30;;;7.40;;
6858;SDS011;3468;42.824;23.240;2023-05-16T11:39:41;13.30;;;7.18;;
6858;SDS011;3468;42.824;23.240;2023-05-16T11:42:07;15.75;;;7.25;;
6858;SDS011;3468;42.824;23.240;2023-05-16T11:44:34;9.82;;;7.47;;
6858;SDS011;3468;42.824;23.240;2023-05-16T11:47:01;10.98;;;7.53;;
6858;SDS011;3468;42.824;23.240;2023-05-16T11:49:28;11.50;;;7.47;;
6858;SDS011;3468;42.824;23.240;2023-05-16T11:51:55;11.00;;;6.88;;
6858;SDS011;3468;42.824;23.240;2023-05-16T11:54:24;13.73;;;7.68;;
6858;SDS011;3468;42.824;23.240;2023-05-16T11:56:51;17.63;;;7.75;;
6858;SDS011;3468;42.824;23.240;2023-05-16T11:59:18;9.65;;;6.75;;
6858;SDS011;3468;42.824;23.240;2023-05-16T12:01:46;13.52;;;8.23;;
6858;SDS011;3468;42.824;23.240;2023-05-16T12:04:14;13.52;;;8.75;;
6858;SDS011;3468;42.824;23.240;2023-05-16T12:06:42;13.25;;;6.97;;
6858;SDS011;3468;42.824;23.240;2023-05-16T12:09:10;12.63;;;7.07;;
6858;SDS011;3468;42.824;23.240;2023-05-16T12:11:40;15.00;;;6.57;;
6858;SDS011;3468;42.824;23.240;2023-05-16T12:14:08;12.13;;;6.60;;
6858;SDS011;3468;42.824;23.240;2023-05-16T12:16:37;13.02;;;6.97;;
6858;SDS011;3468;42.824;23.240;2023-05-16T12:19:06;11.35;;;6.50;;
6858;SDS011;3468;42.824;23.240;2023-05-16T12:21:33;12.05;;;5.70;;
6858;SDS011;3468;42.824;23.240;2023-05-16T12:24:01;10.20;;;7.15;;
6858;SDS011;3468;42.824;23.240;2023-05-16T12:26:28;10.90;;;6.50;;
6858;SDS011;3468;42.824;23.240;2023-05-16T12:28:57;12.15;;;5.72;;
6858;SDS011;3468;42.824;23.240;2023-05-16T12:31:27;10.73;;;6.57;;
6858;SDS011;3468;42.824;23.240;2023-05-16T12:33:55;10.18;;;6.18;;
6858;SDS011;3468;42.824;23.240;2023-05-16T12:36:23;13.13;;;6.72;;
6858;SDS011;3468;42.824;23.240;2023-05-16T12:38:51;15.15;;;6.57;;
6858;SDS011;3468;42.824;23.240;2023-05-16T12:41:18;17.35;;;6.57;;
6858;SDS011;3468;42.824;23.240;2023-05-16T12:43:46;15.40;;;6.32;;
6858;SDS011;3468;42.824;23.240;2023-05-16T12:46:14;11.13;;;6.15;;
6858;SDS011;3468;42.824;23.240;2023-05-16T12:48:41;14.77;;;6.43;;
6858;SDS011;3468;42.824;23.240;2023-05-16T12:51:11;17.10;;;6.85;;
6858;SDS011;3468;42.824;23.240;2023-05-16T12:53:42;12.73;;;7.05;;
6858;SDS011;3468;42.824;23.240;2023-05-16T12:56:10;13.07;;;5.90;;
6858;SDS011;3468;42.824;23.240;2023-05-16T12:58:37;11.57;;;6.30;;
6858;SDS011;3468;42.824;23.240;2023-05-16T13:01:04;17.00;;;7.07;;
6858;SDS011;3468;42.824;23.240;2023-05-16T13:03:33;14.93;;;7.13;;
6858;SDS011;3468;42.824;23.240;2023-05-16T13:06:00;11.90;;;6.95;;
6858;SDS011;3468;42.824;23.240;2023-05-16T13:08:30;14.13;;;6.95;;
6858;SDS011;3468;42.824;23.240;2023-05-16T13:10:56;9.70;;;6.45;;
6858;SDS011;3468;42.824;23.240;2023-05-16T13:13:23;17.65;;;7.32;;
6858;SDS011;3468;42.824;23.240;2023-05-16T13:15:50;16.52;;;8.00;;
6858;SDS011;3468;42.824;23.240;2023-05-16T13:18:16;15.73;;;6.78;;
6858;SDS011;3468;42.824;23.240;2023-05-16T13:20:44;9.75;;;7.63;;
6858;SDS011;3468;42.824;23.240;2023-05-16T13:23:11;11.95;;;7.65;;
6858;SDS011;3468;42.824;23.240;2023-05-16T13:25:38;11.02;;;6.82;;
6858;SDS011;3468;42.824;23.240;2023-05-16T13:28:05;13.40;;;6.97;;
6858;SDS011;3468;42.824;23.240;2023-05-16T13:30:31;11.63;;;7.53;;
6858;SDS011;3468;42.824;23.240;2023-05-16T13:32:58;10.77;;;7.60;;
6858;SDS011;3468;42.824;23.240;2023-05-16T13:35:25;11.50;;;7.47;;
6858;SDS011;3468;42.824;23.240;2023-05-16T13:37:53;17.80;;;7.80;;
6858;SDS011;3468;42.824;23.240;2023-05-16T13:40:20;10.77;;;7.65;;
6858;SDS011;3468;42.824;23.240;2023-05-16T13:42:47;12.95;;;6.95;;
6858;SDS011;3468;42.824;23.240;2023-05-16T13:45:13;15.65;;;7.00;;
6858;SDS011;3468;42.824;23.240;2023-05-16T13:47:40;11.65;;;8.65;;
6858;SDS011;3468;42.824;23.240;2023-05-16T13:50:07;14.20;;;7.45;;
6858;SDS011;3468;42.824;23.240;2023-05-16T13:52:34;14.63;;;8.25;;
6858;SDS011;3468;42.824;23.240;2023-05-16T13:55:03;12.98;;;7.78;;
6858;SDS011;3468;42.824;23.240;2023-05-16T13:57:30;16.83;;;7.70;;
6858;SDS011;3468;42.824;23.240;2023-05-16T13:59:57;16.63;;;8.35;;
6858;SDS011;3468;42.824;23.240;2023-05-16T14:02:23;14.50;;;9.23;;
6858;SDS011;3468;42.824;23.240;2023-05-16T14:04:51;9.95;;;7.35;;
6858;SDS011;3468;42.824;23.240;2023-05-16T14:07:18;14.90;;;8.02;;
6858;SDS011;3468;42.824;23.240;2023-05-16T14:09:44;17.05;;;8.50;;
6858;SDS011;3468;42.824;23.240;2023-05-16T14:12:12;10.38;;;7.82;;
6858;SDS011;3468;42.824;23.240;2023-05-16T14:14:39;13.07;;;7.97;;
6858;SDS011;3468;42.824;23.240;2023-05-16T14:17:06;15.00;;;8.15;;
6858;SDS011;3468;42.824;23.240;2023-05-16T14:19:33;16.42;;;8.10;;
6858;SDS011;3468;42.824;23.240;2023-05-16T14:22:00;13.23;;;8.43;;
6858;SDS011;3468;42.824;23.240;2023-05-16T14:24:27;18.80;;;9.40;;
6858;SDS011;3468;42.824;23.240;2023-05-16T14:26:53;19.30;;;10.68;;
6858;SDS011;3468;42.824;23.240;2023-05-16T14:29:21;18.60;;;11.80;;
6858;SDS011;3468;42.824;23.240;2023-05-16T14:31:48;24.33;;;10.68;;
6858;SDS011;3468;42.824;23.240;2023-05-16T14:34:15;22.23;;;12.57;;
6858;SDS011;3468;42.824;23.240;2023-05-16T14:36:41;20.23;;;10.20;;
6858;SDS011;3468;42.824;23.240;2023-05-16T14:39:08;19.45;;;12.18;;
6858;SDS011;3468;42.824;23.240;2023-05-16T14:41:35;24.17;;;13.63;;
6858;SDS011;3468;42.824;23.240;2023-05-16T14:44:02;18.55;;;11.95;;
6858;SDS011;3468;42.824;23.240;2023-05-16T14:46:30;20.73;;;10.00;;
6858;SDS011;3468;42.824;23.240;2023-05-16T14:48:57;17.42;;;9.07;;